createdAt,value
2023-01-19T00:07:36.149Z,81.2
2023-01-19T00:22:46.123Z,81.1
2023-01-19T00:37:55.824Z,80.9
2023-01-19T00:53:04.702Z,81
2023-01-19T01:08:14.058Z,81.1
2023-01-19T01:23:23.847Z,81.1
2023-01-19T01:38:33.772Z,81.1
2023-01-19T01:53:43.533Z,81.2
2023-01-19T02:08:52.756Z,81.2
2023-01-19T02:24:02.135Z,81.3
2023-01-19T02:39:12.093Z,81.3
2023-01-19T02:54:22.235Z,81.4
2023-01-19T03:09:31.413Z,81.3
2023-01-19T03:24:40.091Z,81.2
2023-01-19T03:39:49.431Z,81.1
2023-01-19T03:54:59.397Z,81
2023-01-19T04:10:09.118Z,81.1
2023-01-19T04:25:17.805Z,80.9
2023-01-19T04:40:27.214Z,80.9
2023-01-19T04:55:38.201Z,80.1
2023-01-19T05:10:47.855Z,80.9
2023-01-19T05:25:57.335Z,81
2023-01-19T05:41:06.870Z,81
2023-01-19T05:56:17.000Z,81
2023-01-19T06:11:37.762Z,81
2023-01-19T06:26:47.934Z,81
2023-01-19T06:41:56.396Z,81
2023-01-19T06:57:06.392Z,81
2023-01-19T07:12:16.306Z,81
2023-01-19T07:27:25.826Z,81.1
2023-01-19T07:42:35.345Z,81.2
2023-01-19T07:57:44.457Z,81.2
2023-01-19T08:12:54.278Z,81.1
2023-01-19T08:28:03.911Z,81
2023-01-19T08:43:13.881Z,81
2023-01-19T08:58:23.618Z,81.1
2023-01-19T09:13:33.609Z,81.2
2023-01-19T09:28:43.029Z,81.3
2023-01-19T09:43:52.582Z,81.3
2023-01-19T09:59:01.940Z,81.5
2023-01-19T10:14:11.894Z,81.6
2023-01-19T10:29:21.795Z,81.7
2023-01-19T10:44:31.881Z,81.6
2023-01-19T10:59:41.803Z,81.4
2023-01-19T11:14:51.456Z,81.4
2023-01-19T11:30:01.464Z,81.4
2023-01-19T11:45:10.191Z,81.5
2023-01-19T12:00:19.893Z,81.6
2023-01-19T12:15:29.005Z,82.1
2023-01-19T12:30:39.104Z,82.3
2023-01-19T12:45:49.224Z,82.4
2023-01-19T13:00:59.486Z,82.4
2023-01-19T13:16:09.645Z,82.3
2023-01-19T13:31:19.028Z,82.2
2023-01-19T13:46:29.385Z,82
2023-01-19T14:01:40.479Z,81.9
2023-01-19T14:16:50.978Z,81.8
2023-01-19T14:32:00.899Z,81.9
2023-01-19T14:47:10.890Z,82
2023-01-19T15:02:20.862Z,82
2023-01-19T15:17:30.979Z,82.2
2023-01-19T15:32:40.531Z,82.5
2023-01-19T15:47:49.833Z,82.7
2023-01-19T16:02:59.565Z,83.1
2023-01-19T16:18:08.906Z,83.3
2023-01-19T16:33:17.515Z,83.4
2023-01-19T16:48:26.763Z,83.5
2023-01-19T17:03:35.744Z,83.6
2023-01-19T17:18:45.509Z,83.6
2023-01-19T17:33:54.618Z,83.6
2023-01-19T17:49:04.061Z,83.7
2023-01-19T18:04:13.402Z,83.7
2023-01-19T18:19:23.388Z,83.7
2023-01-19T18:34:32.564Z,83.9
2023-01-19T18:49:41.799Z,83.7
2023-01-19T19:04:50.528Z,83.8
2023-01-19T19:20:00.074Z,83.8
2023-01-19T19:35:09.832Z,83.8
2023-01-19T19:50:19.045Z,83.9
2023-01-19T20:05:28.280Z,83.7
2023-01-19T20:20:37.487Z,83.9
2023-01-19T20:35:47.268Z,83.9
2023-01-19T20:50:56.224Z,83.9
2023-01-19T21:06:06.199Z,83.9
2023-01-19T21:21:32.377Z,83.9
2023-01-19T21:36:41.755Z,84
2023-01-19T21:51:51.165Z,84
2023-01-19T22:07:00.952Z,84.1
2023-01-19T22:22:10.611Z,84.1
2023-01-19T22:37:20.360Z,84
2023-01-19T22:52:30.578Z,84.1
2023-01-19T23:07:39.843Z,84.2
2023-01-19T23:22:48.144Z,84.2
2023-01-19T23:37:57.531Z,84.2
2023-01-19T23:53:07.034Z,84.2
